createdAt,value
2017-05-19T00:00:07.018Z,33
2017-05-19T00:01:08.952Z,33
2017-05-19T00:02:07.117Z,33
2017-05-19T00:03:07.047Z,33
2017-05-19T00:04:09.076Z,33
2017-05-19T00:05:09.203Z,33
2017-05-19T00:06:07.319Z,33
2017-05-19T00:07:09.249Z,33
2017-05-19T00:08:09.228Z,33
2017-05-19T00:09:09.346Z,33
2017-05-19T00:10:07.702Z,33
2017-05-19T00:11:07.445Z,33
2017-05-19T00:12:07.563Z,33
2017-05-19T00:13:09.400Z,33
2017-05-19T00:14:07.598Z,33
2017-05-19T00:15:07.651Z,33
2017-05-19T00:16:07.869Z,33
2017-05-19T00:17:09.536Z,33
2017-05-19T00:18:09.689Z,33
2017-05-19T00:19:09.621Z,33
2017-05-19T00:20:07.850Z,33
2017-05-19T00:21:07.881Z,33
2017-05-19T00:22:09.992Z,33
2017-05-19T00:23:07.937Z,33
2017-05-19T00:24:09.913Z,33
2017-05-19T00:25:07.921Z,33
2017-05-19T00:26:07.947Z,33
2017-05-19T00:27:09.911Z,33
2017-05-19T00:28:10.123Z,33
2017-05-19T00:29:08.036Z,33
2017-05-19T00:30:08.065Z,33
2017-05-19T00:31:08.068Z,33
2017-05-19T00:32:08.093Z,33
2017-05-19T00:33:08.215Z,33
2017-05-19T00:34:08.405Z,33
2017-05-19T00:35:10.256Z,33
2017-05-19T00:36:08.467Z,33
2017-05-19T00:37:08.379Z,33
2017-05-19T00:38:10.423Z,33
2017-05-19T00:39:10.363Z,33
2017-05-19T00:40:08.671Z,33
2017-05-19T00:41:10.574Z,33
2017-05-19T00:42:08.698Z,33
2017-05-19T00:43:10.611Z,33
2017-05-19T00:44:08.722Z,33
2017-05-19T00:45:08.791Z,33
2017-05-19T00:46:08.880Z,33
2017-05-19T00:47:10.703Z,33
2017-05-19T00:48:08.806Z,33
2017-05-19T00:49:08.843Z,33
2017-05-19T00:50:10.847Z,33
2017-05-19T00:51:09.065Z,33
2017-05-19T00:52:11.132Z,33
2017-05-19T00:53:10.947Z,33
2017-05-19T00:54:11.052Z,33
2017-05-19T00:55:11.064Z,33
2017-05-19T00:56:09.172Z,33
2017-05-19T00:57:11.085Z,33
2017-05-19T00:58:09.385Z,33
2017-05-19T00:59:09.214Z,33
2017-05-19T01:00:09.254Z,33
2017-05-19T01:01:11.326Z,33
2017-05-19T01:02:09.424Z,33
2017-05-19T01:03:09.625Z,33
2017-05-19T01:04:11.679Z,33
2017-05-19T01:05:09.741Z,33
2017-05-19T01:06:09.783Z,33
2017-05-19T01:07:11.777Z,33
2017-05-19T01:08:11.808Z,33
2017-05-19T01:09:11.922Z,33
2017-05-19T01:10:10.210Z,33
2017-05-19T01:11:11.960Z,33
2017-05-19T01:12:12.053Z,33
2017-05-19T01:13:12.006Z,33
2017-05-19T01:14:12.088Z,33
2017-05-19T01:15:12.217Z,33
2017-05-19T01:16:10.514Z,33
2017-05-19T01:17:10.365Z,33
2017-05-19T01:18:10.397Z,33
2017-05-19T01:19:12.232Z,33
2017-05-19T01:20:12.352Z,33
2017-05-19T01:21:10.467Z,33
2017-05-19T01:22:10.660Z,33
2017-05-19T01:23:12.507Z,33
2017-05-19T01:24:10.657Z,33
2017-05-19T01:25:10.850Z,33
2017-05-19T01:26:10.911Z,33
2017-05-19T01:27:12.792Z,33
2017-05-19T01:28:11.216Z,33
2017-05-19T01:29:11.055Z,33
2017-05-19T01:30:13.024Z,33
2017-05-19T01:31:12.959Z,33
2017-05-19T01:32:13.094Z,33
2017-05-19T01:33:11.314Z,33
2017-05-19T01:34:11.407Z,33
2017-05-19T01:35:11.321Z,33
2017-05-19T01:36:13.274Z,33
2017-05-19T01:37:11.401Z,33
2017-05-19T01:38:13.395Z,33
2017-05-19T01:39:11.621Z,33
2017-05-19T01:40:13.627Z,33
2017-05-19T01:41:13.546Z,33
2017-05-19T01:42:13.612Z,33
2017-05-19T01:43:13.727Z,33
2017-05-19T01:44:13.703Z,33
2017-05-19T01:45:13.805Z,33
2017-05-19T01:46:12.162Z,33
2017-05-19T01:47:13.996Z,33
2017-05-19T01:48:13.917Z,33
2017-05-19T01:49:12.088Z,33
2017-05-19T01:50:12.256Z,33
2017-05-19T01:51:12.243Z,33
2017-05-19T01:52:12.481Z,33
2017-05-19T01:53:14.247Z,33
2017-05-19T01:54:14.341Z,33
2017-05-19T01:55:14.440Z,33
2017-05-19T01:56:14.409Z,33
2017-05-19T01:57:12.688Z,33
2017-05-19T01:58:14.751Z,33
2017-05-19T01:59:14.583Z,33
2017-05-19T02:00:14.696Z,33
2017-05-19T02:01:12.813Z,33
2017-05-19T02:02:14.790Z,33
2017-05-19T02:03:14.746Z,33
2017-05-19T02:04:13.145Z,33
2017-05-19T02:05:14.850Z,33
2017-05-19T02:06:14.923Z,33
2017-05-19T02:07:15.001Z,33
2017-05-19T02:08:15.008Z,33
2017-05-19T02:09:15.027Z,33
2017-05-19T02:10:13.411Z,33
2017-05-19T02:11:15.220Z,33
2017-05-19T02:12:13.289Z,33
2017-05-19T02:13:13.351Z,33
2017-05-19T02:14:15.300Z,33
2017-05-19T02:15:15.469Z,33
2017-05-19T02:16:13.472Z,33
2017-05-19T02:17:15.526Z,33
2017-05-19T02:18:13.600Z,33
2017-05-19T02:19:15.655Z,33
2017-05-19T02:20:13.763Z,33
2017-05-19T02:21:15.919Z,33
2017-05-19T02:22:15.643Z,32.9
2017-05-19T02:23:15.793Z,33
2017-05-19T02:24:13.867Z,33
2017-05-19T02:25:15.828Z,33
2017-05-19T02:26:13.966Z,33
2017-05-19T02:27:16.278Z,32.9
2017-05-19T02:28:14.114Z,33
2017-05-19T02:29:14.295Z,32.9
2017-05-19T02:30:14.231Z,32.9
2017-05-19T02:31:14.377Z,32.9
2017-05-19T02:32:14.432Z,32.9
2017-05-19T02:33:14.556Z,32.9
2017-05-19T02:34:14.437Z,32.9
2017-05-19T02:35:16.462Z,32.9
2017-05-19T02:36:14.609Z,32.9
2017-05-19T02:37:14.660Z,32.9
2017-05-19T02:38:14.703Z,32.9
2017-05-19T02:39:16.884Z,32.9
2017-05-19T02:40:16.843Z,32.9
2017-05-19T02:41:14.954Z,32.9
2017-05-19T02:42:16.954Z,32.9
2017-05-19T02:43:15.075Z,32.9
2017-05-19T02:44:17.073Z,32.9
2017-05-19T02:45:17.216Z,32.9
2017-05-19T02:46:17.209Z,32.9
2017-05-19T02:47:17.246Z,32.9
2017-05-19T02:48:17.291Z,32.9
2017-05-19T02:49:17.414Z,32.9
2017-05-19T02:50:15.613Z,32.9
2017-05-19T02:51:15.466Z,32.9
2017-05-19T02:52:17.508Z,32.9
2017-05-19T02:53:15.589Z,32.9
2017-05-19T02:54:15.590Z,32.9
2017-05-19T02:55:17.547Z,32.9
2017-05-19T02:56:15.876Z,32.9
2017-05-19T02:57:17.725Z,32.9
2017-05-19T02:58:17.737Z,32.9
2017-05-19T02:59:17.756Z,32.9
2017-05-19T03:00:17.717Z,32.9
2017-05-19T03:01:15.806Z,32.9
2017-05-19T03:02:18.082Z,32.9
2017-05-19T03:03:16.036Z,32.9
2017-05-19T03:04:17.913Z,32.9
2017-05-19T03:05:16.637Z,32.9
2017-05-19T03:06:16.072Z,32.9
2017-05-19T03:07:16.217Z,32.9
2017-05-19T03:08:16.389Z,32.9
2017-05-19T03:09:18.259Z,32.9
2017-05-19T03:10:16.288Z,32.9
2017-05-19T03:11:18.294Z,32.9
2017-05-19T03:12:16.369Z,32.9
2017-05-19T03:13:18.370Z,32.9
2017-05-19T03:14:18.615Z,32.9
2017-05-19T03:15:16.527Z,32.9
2017-05-19T03:16:18.540Z,32.9
2017-05-19T03:17:19.313Z,32.9
2017-05-19T03:18:18.628Z,32.9
2017-05-19T03:19:18.691Z,32.9
2017-05-19T03:20:17.100Z,32.9
2017-05-19T03:21:18.821Z,32.9
2017-05-19T03:22:19.480Z,32.9
2017-05-19T03:23:18.899Z,32.9
2017-05-19T03:24:17.707Z,32.9
2017-05-19T03:25:18.993Z,32.9
2017-05-19T03:26:17.411Z,32.9
2017-05-19T03:27:17.185Z,32.9
2017-05-19T03:28:19.220Z,32.9
2017-05-19T03:29:17.331Z,32.9
2017-05-19T03:30:19.360Z,32.9
2017-05-19T03:31:17.451Z,32.9
2017-05-19T03:32:19.588Z,32.9
2017-05-19T03:33:20.187Z,32.9
2017-05-19T03:34:19.518Z,32.9
2017-05-19T03:35:19.600Z,32.9
2017-05-19T03:36:19.534Z,32.9
2017-05-19T03:37:20.607Z,33
2017-05-19T03:38:18.014Z,33
2017-05-19T03:39:17.830Z,33
2017-05-19T03:40:17.888Z,33
2017-05-19T03:41:17.808Z,33
2017-05-19T03:42:19.822Z,33
2017-05-19T03:43:17.899Z,32.9
2017-05-19T03:44:20.732Z,33
2017-05-19T03:45:19.876Z,32.9
2017-05-19T03:46:19.977Z,32.9
2017-05-19T03:47:18.046Z,33
2017-05-19T03:48:18.154Z,33
2017-05-19T03:49:18.078Z,33
2017-05-19T03:50:20.258Z,33
2017-05-19T03:51:18.278Z,33
2017-05-19T03:52:18.331Z,33
2017-05-19T03:53:18.381Z,33.1
2017-05-19T03:54:20.306Z,33.3
2017-05-19T03:55:21.100Z,33.7
2017-05-19T03:56:20.412Z,34.1
2017-05-19T03:57:20.546Z,34.3
2017-05-19T03:58:20.460Z,34.5
2017-05-19T03:59:20.503Z,34.9
2017-05-19T04:00:18.600Z,35.4
2017-05-19T04:01:18.848Z,35.8
2017-05-19T04:02:18.809Z,36.2
2017-05-19T04:03:20.739Z,36.4
2017-05-19T04:04:20.780Z,36.6
2017-05-19T04:05:19.004Z,36.7
2017-05-19T04:06:18.947Z,36.7
2017-05-19T04:07:21.199Z,36.7
2017-05-19T04:08:19.128Z,36.7
2017-05-19T04:09:21.104Z,36.7
2017-05-19T04:10:21.152Z,36.8
2017-05-19T04:11:21.225Z,36.8
2017-05-19T04:12:21.231Z,36.8
2017-05-19T04:13:21.420Z,36.8
2017-05-19T04:14:19.418Z,36.8
2017-05-19T04:15:21.307Z,36.8
2017-05-19T04:16:21.964Z,36.9
2017-05-19T04:17:19.488Z,36.9
2017-05-19T04:18:19.547Z,36.9
2017-05-19T04:19:19.752Z,36.9
2017-05-19T04:20:21.568Z,36.9
2017-05-19T04:21:21.591Z,36.9
2017-05-19T04:22:19.774Z,36.9
2017-05-19T04:23:19.799Z,36.8
2017-05-19T04:24:21.720Z,36.8
2017-05-19T04:25:22.066Z,36.8
2017-05-19T04:26:21.781Z,36.8
2017-05-19T04:27:21.865Z,36.8
2017-05-19T04:28:19.945Z,34.7
2017-05-19T04:29:19.926Z,33.8
2017-05-19T04:30:20.100Z,34.3
2017-05-19T04:31:22.148Z,35.1
2017-05-19T04:32:20.079Z,36.2
2017-05-19T04:33:20.114Z,37.3
2017-05-19T04:34:20.181Z,38.5
2017-05-19T04:35:20.264Z,39.6
2017-05-19T04:36:20.228Z,41
2017-05-19T04:37:20.600Z,41.6
2017-05-19T04:38:22.310Z,41.8
2017-05-19T04:39:20.502Z,42.2
2017-05-19T04:40:22.348Z,42.3
2017-05-19T04:41:20.438Z,42.6
2017-05-19T04:42:20.462Z,42.4
2017-05-19T04:43:20.785Z,42.5
2017-05-19T04:44:22.517Z,42.5
2017-05-19T04:45:20.614Z,42.6
2017-05-19T04:46:22.557Z,42.5
2017-05-19T04:47:22.549Z,42.5
2017-05-19T04:48:22.675Z,42.4
2017-05-19T04:49:22.883Z,42.3
2017-05-19T04:50:22.704Z,42.2
2017-05-19T04:51:22.815Z,42.2
2017-05-19T04:52:20.859Z,42.1
2017-05-19T04:53:22.865Z,42
2017-05-19T04:54:21.057Z,42.1
2017-05-19T04:55:23.154Z,42
2017-05-19T04:56:23.145Z,42
2017-05-19T04:57:21.257Z,42.1
2017-05-19T04:58:23.096Z,42.1
2017-05-19T04:59:23.183Z,42.2
2017-05-19T05:00:23.254Z,42.4
2017-05-19T05:01:23.405Z,42.5
2017-05-19T05:02:23.342Z,42.5
2017-05-19T05:03:22.005Z,42.7
2017-05-19T05:04:21.849Z,42.7
2017-05-19T05:05:23.889Z,42.9
2017-05-19T05:06:24.741Z,43
2017-05-19T05:07:24.379Z,43
2017-05-19T05:08:22.447Z,43.1
2017-05-19T05:09:21.908Z,43.2
2017-05-19T05:10:22.671Z,43.2
2017-05-19T05:11:22.653Z,43.2
2017-05-19T05:12:24.226Z,43.2
2017-05-19T05:13:24.218Z,43.3
2017-05-19T05:14:22.914Z,43.4
2017-05-19T05:15:23.135Z,43.5
2017-05-19T05:16:25.763Z,43.5
2017-05-19T05:17:25.146Z,43.5
2017-05-19T05:18:22.373Z,43.4
2017-05-19T05:19:24.558Z,43.4
2017-05-19T05:20:24.355Z,43.3
2017-05-19T05:21:24.382Z,43.3
2017-05-19T05:22:22.585Z,43.3
2017-05-19T05:23:22.674Z,43.3
2017-05-19T05:24:25.301Z,43.3
2017-05-19T05:25:22.761Z,43.2
2017-05-19T05:26:23.818Z,43.2
2017-05-19T05:27:24.907Z,43.1
2017-05-19T05:28:24.665Z,43.2
2017-05-19T05:29:22.761Z,43.3
2017-05-19T05:30:23.094Z,43.3
2017-05-19T05:31:24.767Z,43.4
2017-05-19T05:32:23.035Z,43.4
2017-05-19T05:33:23.102Z,43.4
2017-05-19T05:34:24.912Z,43.5
2017-05-19T05:35:24.968Z,43.5
2017-05-19T05:36:25.231Z,43.4
2017-05-19T05:37:25.041Z,43.3
2017-05-19T05:38:25.116Z,43.4
2017-05-19T05:39:23.933Z,43.4
2017-05-19T05:40:23.960Z,43.4
2017-05-19T05:41:25.302Z,43.5
2017-05-19T05:42:23.527Z,43.5
2017-05-19T05:43:25.398Z,43.4
2017-05-19T05:44:23.560Z,43.4
2017-05-19T05:45:23.479Z,43.4
2017-05-19T05:46:23.434Z,43.3
2017-05-19T05:47:23.514Z,43.3
2017-05-19T05:48:23.690Z,43.2
2017-05-19T05:49:23.542Z,43.1
2017-05-19T05:50:23.613Z,43.1
2017-05-19T05:51:23.565Z,43.1
2017-05-19T05:52:23.659Z,43.1
2017-05-19T05:53:26.436Z,43.1
2017-05-19T05:54:23.982Z,43.1
2017-05-19T05:55:25.857Z,43.1
2017-05-19T05:56:23.936Z,43.1
2017-05-19T05:57:24.060Z,43.1
2017-05-19T05:58:26.115Z,43.1
2017-05-19T05:59:24.133Z,43.1
2017-05-19T06:00:26.416Z,43.1
2017-05-19T06:01:24.183Z,43.2
2017-05-19T06:02:26.248Z,43.3
2017-05-19T06:03:24.340Z,43.4
2017-05-19T06:04:26.967Z,43.5
2017-05-19T06:05:26.677Z,43.6
2017-05-19T06:06:25.182Z,43.8
2017-05-19T06:07:24.553Z,44
2017-05-19T06:08:24.653Z,44.1
2017-05-19T06:09:26.663Z,44.2
2017-05-19T06:10:26.751Z,44.1
2017-05-19T06:11:25.064Z,44.2
2017-05-19T06:12:24.807Z,44.2
2017-05-19T06:13:25.529Z,44.2
2017-05-19T06:14:26.747Z,44.3
2017-05-19T06:15:24.936Z,44.3
2017-05-19T06:16:26.963Z,44.3
2017-05-19T06:17:27.104Z,44.3
2017-05-19T06:18:25.168Z,44.2
2017-05-19T06:19:27.056Z,44.2
2017-05-19T06:20:27.899Z,44
2017-05-19T06:21:27.116Z,44
2017-05-19T06:22:27.164Z,44
2017-05-19T06:23:25.587Z,44
2017-05-19T06:24:27.240Z,44
2017-05-19T06:25:27.233Z,44
2017-05-19T06:26:25.976Z,43.9
2017-05-19T06:27:25.424Z,43.9
2017-05-19T06:28:27.408Z,44
2017-05-19T06:29:27.562Z,43.9
2017-05-19T06:30:25.432Z,43.9
2017-05-19T06:31:28.093Z,43.9
2017-05-19T06:32:27.509Z,43.8
2017-05-19T06:33:25.760Z,43.8
2017-05-19T06:34:28.198Z,43.8
2017-05-19T06:35:27.975Z,43.8
2017-05-19T06:36:30.075Z,43.8
2017-05-19T06:37:27.768Z,43.7
2017-05-19T06:38:26.336Z,43.8
2017-05-19T06:39:25.717Z,43.8
2017-05-19T06:40:27.644Z,43.9
2017-05-19T06:41:26.071Z,43.9
2017-05-19T06:42:25.961Z,43.9
2017-05-19T06:43:28.367Z,44
2017-05-19T06:44:28.683Z,43.9
2017-05-19T06:45:28.587Z,43.9
2017-05-19T06:46:26.212Z,44
2017-05-19T06:47:28.402Z,44.1
2017-05-19T06:48:26.359Z,44.1
2017-05-19T06:49:28.285Z,44.1
2017-05-19T06:50:28.916Z,43.9
2017-05-19T06:51:27.085Z,43.9
2017-05-19T06:52:27.424Z,43.8
2017-05-19T06:53:26.709Z,43.7
2017-05-19T06:54:28.550Z,43.6
2017-05-19T06:55:26.709Z,43.5
2017-05-19T06:56:27.447Z,43.5
2017-05-19T06:57:27.725Z,43.3
2017-05-19T06:58:26.818Z,43.1
2017-05-19T06:59:28.991Z,42.9
2017-05-19T07:00:28.849Z,42.7
2017-05-19T07:01:28.682Z,42.7
2017-05-19T07:02:27.375Z,42.6
2017-05-19T07:03:30.970Z,42.5
2017-05-19T07:04:28.816Z,42.5
2017-05-19T07:05:28.334Z,42.4
2017-05-19T07:06:30.351Z,42.4
2017-05-19T07:07:27.666Z,42.4
2017-05-19T07:08:29.109Z,42.4
2017-05-19T07:09:29.205Z,42.3
2017-05-19T07:10:27.196Z,42.2
2017-05-19T07:11:30.394Z,42.2
2017-05-19T07:12:29.814Z,42.1
2017-05-19T07:13:27.534Z,42.2
2017-05-19T07:14:27.520Z,41.9
2017-05-19T07:15:33.874Z,41.9
2017-05-19T07:16:27.648Z,41.9
2017-05-19T07:17:29.639Z,41.8
2017-05-19T07:18:30.973Z,41.6
2017-05-19T07:19:30.433Z,41.6
2017-05-19T07:20:29.804Z,41.7
2017-05-19T07:21:29.887Z,41.7
2017-05-19T07:22:29.904Z,41.9
2017-05-19T07:23:30.609Z,41.9
2017-05-19T07:24:28.291Z,41.9
2017-05-19T07:25:29.476Z,42
2017-05-19T07:26:28.103Z,42.2
2017-05-19T07:27:28.228Z,42.1
2017-05-19T07:28:28.194Z,42.2
2017-05-19T07:29:28.160Z,42.2
2017-05-19T07:30:31.473Z,42.2
2017-05-19T07:31:28.304Z,42.1
2017-05-19T07:32:28.310Z,42
2017-05-19T07:33:28.425Z,42.1
2017-05-19T07:34:28.599Z,42.1
2017-05-19T07:35:29.076Z,42
2017-05-19T07:36:30.119Z,41.9
2017-05-19T07:37:30.717Z,41.9
2017-05-19T07:38:30.595Z,41.9
2017-05-19T07:39:29.332Z,42
2017-05-19T07:40:29.373Z,41.9
2017-05-19T07:41:30.589Z,42
2017-05-19T07:42:31.653Z,42
2017-05-19T07:43:31.428Z,41.9
2017-05-19T07:44:31.458Z,41.8
2017-05-19T07:45:30.859Z,41.8
2017-05-19T07:46:30.345Z,41.7
2017-05-19T07:47:28.885Z,41.6
2017-05-19T07:48:31.615Z,41.6
2017-05-19T07:49:29.013Z,41.5
2017-05-19T07:50:33.545Z,41.4
2017-05-19T07:51:30.549Z,41.4
2017-05-19T07:52:34.408Z,41.4
2017-05-19T07:53:33.640Z,41.4
2017-05-19T07:54:33.994Z,41.4
2017-05-19T07:55:33.942Z,41.6
2017-05-19T07:56:31.229Z,41.6
2017-05-19T07:57:33.480Z,41.5
2017-05-19T07:58:32.720Z,41.5
2017-05-19T07:59:32.936Z,41.5
2017-05-19T08:00:29.643Z,41.5
2017-05-19T08:01:29.907Z,41.5
2017-05-19T08:02:31.680Z,41.5
2017-05-19T08:03:32.400Z,41.4
2017-05-19T08:04:31.735Z,41.5
2017-05-19T08:05:32.782Z,41.5
2017-05-19T08:06:29.854Z,41.4
2017-05-19T08:07:31.608Z,41.4
2017-05-19T08:08:29.981Z,41.4
2017-05-19T08:09:29.967Z,41.5
2017-05-19T08:10:32.464Z,41.5
2017-05-19T08:11:36.574Z,41.5
2017-05-19T08:12:31.282Z,41.5
2017-05-19T08:13:33.729Z,41.4
2017-05-19T08:14:32.819Z,41.4
2017-05-19T08:15:32.192Z,41.3
2017-05-19T08:16:30.418Z,41.3
2017-05-19T08:17:30.981Z,41.3
2017-05-19T08:18:31.192Z,41.2
2017-05-19T08:19:30.436Z,41.2
2017-05-19T08:20:30.539Z,41.1
2017-05-19T08:21:31.317Z,41.1
2017-05-19T08:22:32.623Z,41.1
2017-05-19T08:23:32.651Z,41.2
2017-05-19T08:24:31.764Z,41.1
2017-05-19T08:25:32.672Z,41.1
2017-05-19T08:26:32.966Z,41.1
2017-05-19T08:27:34.193Z,41.1
2017-05-19T08:28:31.559Z,41.2
2017-05-19T08:29:32.911Z,41.2
2017-05-19T08:30:31.559Z,41.1
2017-05-19T08:31:33.542Z,41.1
2017-05-19T08:32:31.101Z,41.2
2017-05-19T08:33:31.214Z,41.1
2017-05-19T08:34:31.188Z,41.2
2017-05-19T08:35:34.789Z,41.3
2017-05-19T08:36:31.805Z,41.2
2017-05-19T08:37:32.006Z,41.2
2017-05-19T08:38:33.959Z,41.4
2017-05-19T08:39:32.083Z,41.4
2017-05-19T08:40:33.988Z,41.5
2017-05-19T08:41:32.289Z,41.6
2017-05-19T08:42:33.663Z,41.8
2017-05-19T08:43:33.811Z,41.7
2017-05-19T08:44:33.701Z,41.7
2017-05-19T08:45:33.033Z,41.8
2017-05-19T08:46:35.156Z,41.8
2017-05-19T08:47:33.905Z,41.7
2017-05-19T08:48:31.922Z,41.8
2017-05-19T08:49:35.398Z,41.9
2017-05-19T08:50:35.343Z,41.9
2017-05-19T08:51:34.795Z,41.8
2017-05-19T08:52:36.426Z,41.9
2017-05-19T08:53:36.321Z,41.8
2017-05-19T08:54:39.869Z,41.7
2017-05-19T08:55:32.426Z,41.8
2017-05-19T08:56:34.358Z,41.8
2017-05-19T08:57:35.077Z,41.8
2017-05-19T08:58:34.944Z,41.9
2017-05-19T08:59:35.025Z,41.9
2017-05-19T09:00:35.100Z,42
2017-05-19T09:01:32.520Z,42
2017-05-19T09:02:34.595Z,42.1
2017-05-19T09:03:32.759Z,42
2017-05-19T09:04:34.734Z,42
2017-05-19T09:05:36.529Z,42
2017-05-19T09:06:38.061Z,42
2017-05-19T09:07:36.945Z,41.9
2017-05-19T09:08:35.605Z,41.9
2017-05-19T09:09:35.640Z,41.9
2017-05-19T09:10:33.988Z,41.9
2017-05-19T09:11:33.840Z,41.9
2017-05-19T09:12:34.002Z,41.9
2017-05-19T09:13:34.021Z,42
2017-05-19T09:14:34.845Z,42
2017-05-19T09:15:34.580Z,42
2017-05-19T09:16:33.446Z,41.9
2017-05-19T09:17:37.066Z,41.9
2017-05-19T09:18:36.102Z,42
2017-05-19T09:19:34.118Z,42
2017-05-19T09:20:34.387Z,42.1
2017-05-19T09:21:35.589Z,42.1
2017-05-19T09:22:34.303Z,42.2
2017-05-19T09:23:35.692Z,42.2
2017-05-19T09:24:34.462Z,42.3
2017-05-19T09:25:33.927Z,42.4
2017-05-19T09:26:34.498Z,42.5
2017-05-19T09:27:34.876Z,42.5
2017-05-19T09:28:35.157Z,42.6
2017-05-19T09:29:35.972Z,42.6
2017-05-19T09:30:35.891Z,42.6
2017-05-19T09:31:34.654Z,42.7
2017-05-19T09:32:36.846Z,42.6
2017-05-19T09:33:34.895Z,42.6
2017-05-19T09:34:36.240Z,42.7
2017-05-19T09:35:36.209Z,42.7
2017-05-19T09:36:34.450Z,42.7
2017-05-19T09:37:36.375Z,42.8
2017-05-19T09:38:37.912Z,42.6
2017-05-19T09:39:37.098Z,42.6
2017-05-19T09:40:40.895Z,42.7
2017-05-19T09:41:36.603Z,42.8
2017-05-19T09:42:36.727Z,42.8
2017-05-19T09:43:36.825Z,42.8
2017-05-19T09:44:35.449Z,42.7
2017-05-19T09:45:34.927Z,42.6
2017-05-19T09:46:35.516Z,42.6
2017-05-19T09:47:37.606Z,42.6
2017-05-19T09:48:37.060Z,42.5
2017-05-19T09:49:38.390Z,42.6
2017-05-19T09:50:37.167Z,42.6
2017-05-19T09:51:38.825Z,42.6
2017-05-19T09:52:36.047Z,42.6
2017-05-19T09:53:37.914Z,42.5
2017-05-19T09:54:35.418Z,42.5
2017-05-19T09:55:37.958Z,42.5
2017-05-19T09:56:37.955Z,42.5
2017-05-19T09:57:36.780Z,42.5
2017-05-19T09:58:37.943Z,42.5
2017-05-19T09:59:35.616Z,42.5
2017-05-19T10:00:35.750Z,42.5
2017-05-19T10:01:36.706Z,42.5
2017-05-19T10:02:37.707Z,42.5
2017-05-19T10:03:37.665Z,42.4
2017-05-19T10:04:38.732Z,42.5
2017-05-19T10:05:36.432Z,42.5
2017-05-19T10:06:38.620Z,42.6
2017-05-19T10:07:35.934Z,42.6
2017-05-19T10:08:36.847Z,42.6
2017-05-19T10:09:37.481Z,42.7
2017-05-19T10:10:38.316Z,42.7
2017-05-19T10:11:39.513Z,42.7
2017-05-19T10:12:36.442Z,42.7
2017-05-19T10:13:37.233Z,42.8
2017-05-19T10:14:37.259Z,42.9
2017-05-19T10:15:38.754Z,42.9
2017-05-19T10:16:38.938Z,43
2017-05-19T10:17:40.333Z,43
2017-05-19T10:18:38.499Z,43.1
2017-05-19T10:19:38.786Z,43.1
2017-05-19T10:20:37.444Z,43.1
2017-05-19T10:21:38.907Z,43.2
2017-05-19T10:22:39.469Z,43.3
2017-05-19T10:23:38.919Z,43.5
2017-05-19T10:24:40.714Z,43.6
2017-05-19T10:25:39.710Z,43.4
2017-05-19T10:26:37.310Z,43.3
2017-05-19T10:27:39.128Z,43.1
2017-05-19T10:28:37.290Z,42.8
2017-05-19T10:29:39.314Z,42.6
2017-05-19T10:30:39.184Z,42.3
2017-05-19T10:31:37.421Z,42
2017-05-19T10:32:39.379Z,41.7
2017-05-19T10:33:39.441Z,41.4
2017-05-19T10:34:38.019Z,41.2
2017-05-19T10:35:39.412Z,41
2017-05-19T10:36:40.243Z,40.8
2017-05-19T10:37:41.240Z,40.6
2017-05-19T10:38:41.242Z,40.5
2017-05-19T10:39:37.787Z,40.3
2017-05-19T10:40:38.411Z,40.2
2017-05-19T10:41:39.701Z,40.1
2017-05-19T10:42:37.854Z,39.9
2017-05-19T10:43:38.027Z,39.8
2017-05-19T10:44:40.553Z,39.7
2017-05-19T10:45:38.141Z,39.5
2017-05-19T10:46:40.067Z,39.4
2017-05-19T10:47:41.940Z,39.3
2017-05-19T10:48:42.060Z,39.2
2017-05-19T10:49:38.310Z,39.1
2017-05-19T10:50:38.467Z,39
2017-05-19T10:51:38.386Z,38.9
2017-05-19T10:52:42.568Z,38.8
2017-05-19T10:53:42.260Z,38.7
2017-05-19T10:54:39.944Z,38.6
2017-05-19T10:55:41.602Z,38.5
2017-05-19T10:56:45.921Z,38.5
2017-05-19T10:57:41.717Z,38.4
2017-05-19T10:58:39.340Z,38.3
2017-05-19T10:59:39.226Z,38.3
2017-05-19T11:00:40.684Z,38.2
2017-05-19T11:01:39.362Z,38.2
2017-05-19T11:02:42.133Z,38.1
2017-05-19T11:03:39.538Z,38.1
2017-05-19T11:04:39.698Z,38.1
2017-05-19T11:05:41.625Z,38
2017-05-19T11:06:39.105Z,38
2017-05-19T11:07:41.717Z,38
2017-05-19T11:08:39.163Z,37.9
2017-05-19T11:09:39.884Z,37.9
2017-05-19T11:10:39.248Z,37.9
2017-05-19T11:11:39.922Z,37.8
2017-05-19T11:12:41.334Z,37.8
2017-05-19T11:13:42.965Z,37.8
2017-05-19T11:14:41.331Z,37.8
2017-05-19T11:15:41.486Z,37.8
2017-05-19T11:16:40.223Z,37.7
2017-05-19T11:17:41.652Z,37.7
2017-05-19T11:18:39.701Z,37.7
2017-05-19T11:19:42.028Z,37.6
2017-05-19T11:20:40.400Z,37.6
2017-05-19T11:21:39.808Z,37.6
2017-05-19T11:22:42.561Z,37.5
2017-05-19T11:23:42.427Z,37.5
2017-05-19T11:24:41.856Z,37.4
2017-05-19T11:25:41.808Z,37.4
2017-05-19T11:26:39.915Z,37.4
2017-05-19T11:27:40.756Z,37.3
2017-05-19T11:28:42.061Z,37.3
2017-05-19T11:29:42.874Z,37.3
2017-05-19T11:30:40.268Z,37.4
2017-05-19T11:31:40.952Z,37.3
2017-05-19T11:32:42.195Z,37.2
2017-05-19T11:33:43.005Z,37.1
2017-05-19T11:34:40.545Z,37.1
2017-05-19T11:35:40.522Z,37
2017-05-19T11:36:43.153Z,37
2017-05-19T11:37:42.472Z,36.9
2017-05-19T11:38:40.565Z,36.9
2017-05-19T11:39:40.606Z,36.9
2017-05-19T11:40:42.647Z,36.8
2017-05-19T11:41:42.619Z,36.8
2017-05-19T11:42:40.831Z,36.8
2017-05-19T11:43:40.806Z,36.7
2017-05-19T11:44:42.796Z,36.7
2017-05-19T11:45:40.985Z,36.6
2017-05-19T11:46:42.912Z,36.6
2017-05-19T11:47:41.701Z,36.6
2017-05-19T11:48:44.350Z,36.6
2017-05-19T11:49:41.166Z,36.5
2017-05-19T11:50:41.334Z,36.5
2017-05-19T11:51:43.224Z,36.5
2017-05-19T11:52:41.614Z,36.5
2017-05-19T11:53:43.220Z,36.5
2017-05-19T11:54:41.354Z,36.4
2017-05-19T11:55:43.990Z,36.4
2017-05-19T11:56:41.583Z,36.4
2017-05-19T11:57:41.546Z,36.3
2017-05-19T11:58:42.827Z,36.3
2017-05-19T11:59:43.649Z,36.3
2017-05-19T12:00:47.528Z,36.3
2017-05-19T12:01:41.724Z,36.2
2017-05-19T12:02:43.884Z,36.2
2017-05-19T12:03:47.443Z,36.2
2017-05-19T12:04:45.716Z,36.1
2017-05-19T12:05:45.154Z,36.1
2017-05-19T12:06:43.376Z,36.1
2017-05-19T12:07:44.170Z,36.1
2017-05-19T12:08:44.246Z,36.1
2017-05-19T12:09:42.330Z,36
2017-05-19T12:10:42.891Z,36
2017-05-19T12:11:43.422Z,35.9
2017-05-19T12:12:44.964Z,35.9
2017-05-19T12:13:44.947Z,35.9
2017-05-19T12:14:43.620Z,35.8
2017-05-19T12:15:45.077Z,35.8
2017-05-19T12:16:42.693Z,35.8
2017-05-19T12:17:45.267Z,35.8
2017-05-19T12:18:43.305Z,35.7
2017-05-19T12:19:42.844Z,35.7
2017-05-19T12:20:45.853Z,35.7
2017-05-19T12:21:44.767Z,35.7
2017-05-19T12:22:45.961Z,35.7
2017-05-19T12:23:42.940Z,35.7
2017-05-19T12:24:43.083Z,35.7
2017-05-19T12:25:44.590Z,35.7
2017-05-19T12:26:45.039Z,35.7
2017-05-19T12:27:43.887Z,35.6
2017-05-19T12:28:46.432Z,35.7
2017-05-19T12:29:46.588Z,35.7
2017-05-19T12:30:46.260Z,35.5
2017-05-19T12:31:46.119Z,35.4
2017-05-19T12:32:46.277Z,35.3
2017-05-19T12:33:44.311Z,35.2
2017-05-19T12:34:47.302Z,35.2
2017-05-19T12:35:44.604Z,35.2
2017-05-19T12:36:44.634Z,35.2
2017-05-19T12:37:45.660Z,35.2
2017-05-19T12:38:44.657Z,35.3
2017-05-19T12:39:44.816Z,35.3
2017-05-19T12:40:46.599Z,35.2
2017-05-19T12:41:44.707Z,35.3
2017-05-19T12:42:45.582Z,35.3
2017-05-19T12:43:46.144Z,35.3
2017-05-19T12:44:46.258Z,35.4
2017-05-19T12:45:44.278Z,35.5
2017-05-19T12:46:47.571Z,35.5
2017-05-19T12:47:47.874Z,35.5
2017-05-19T12:48:47.183Z,35.5
2017-05-19T12:49:46.483Z,35.6
2017-05-19T12:50:48.929Z,35.5
2017-05-19T12:51:46.657Z,35.5
2017-05-19T12:52:46.581Z,35.5
2017-05-19T12:53:44.660Z,35.6
2017-05-19T12:54:45.463Z,35.7
2017-05-19T12:55:47.332Z,35.7
2017-05-19T12:56:46.879Z,35.8
2017-05-19T12:57:47.035Z,35.8
2017-05-19T12:58:47.601Z,35.9
2017-05-19T14:56:46.161Z,35.2
2017-05-19T14:57:47.230Z,35.3
2017-05-19T14:58:45.308Z,35.3
2017-05-19T14:59:47.253Z,35.3
2017-05-19T15:00:45.340Z,35.4
2017-05-19T15:01:47.285Z,35.4
2017-05-19T15:02:47.697Z,35.3
2017-05-19T15:03:47.478Z,35.3
2017-05-19T15:04:45.478Z,35.3
2017-05-19T15:05:45.677Z,35.2
2017-05-19T15:06:46.383Z,35.1
2017-05-19T15:07:49.106Z,34.9
2017-05-19T15:08:45.917Z,34.9
2017-05-19T15:09:47.810Z,34.9
2017-05-19T15:10:47.215Z,34.9
2017-05-19T15:11:45.911Z,34.9
2017-05-19T15:12:45.916Z,35
2017-05-19T15:13:47.885Z,35.1
2017-05-19T15:14:48.153Z,35.1
2017-05-19T15:15:48.991Z,35.1
2017-05-19T15:16:47.964Z,35.2
2017-05-19T15:17:46.137Z,35.2
2017-05-19T15:18:46.880Z,35.2
2017-05-19T15:19:48.226Z,35.3
2017-05-19T15:20:48.482Z,35.2
2017-05-19T15:21:48.941Z,35.2
2017-05-19T15:22:46.379Z,35.3
2017-05-19T15:23:46.581Z,35.3
2017-05-19T15:24:48.418Z,35.3
2017-05-19T15:25:48.596Z,35.2
2017-05-19T15:26:49.511Z,35.2
2017-05-19T15:27:46.707Z,35.3
2017-05-19T15:28:48.637Z,35.3
2017-05-19T15:29:46.875Z,35.3